sensor_id;sensor_type;location;lat;lon;timestamp;temperature;humidity
20291;DHT22;10304;51.074;13.754;2023-08-01T00:00:15;22.90;1.00
20291;DHT22;10304;51.074;13.754;2023-08-01T00:02:42;22.90;1.00
20291;DHT22;10304;51.074;13.754;2023-08-01T00:05:09;22.90;1.00
20291;DHT22;10304;51.074;13.754;2023-08-01T00:07:36;22.90;1.00
20291;DHT22;10304;51.074;13.754;2023-08-01T00:10:04;22.80;1.00
20291;DHT22;10304;51.074;13.754;2023-08-01T00:12:31;22.80;1.20
20291;DHT22;10304;51.074;13.754;2023-08-01T00:14:58;22.90;23.60
20291;DHT22;10304;51.074;13.754;2023-08-01T00:17:25;22.80;19.80
20291;DHT22;10304;51.074;13.754;2023-08-01T00:19:51;22.70;23.90
20291;DHT22;10304;51.074;13.754;2023-08-01T00:22:18;22.80;53.30
20291;DHT22;10304;51.074;13.754;2023-08-01T00:24:45;22.80;99.90
20291;DHT22;10304;51.074;13.754;2023-08-01T00:27:14;22.70;99.90
20291;DHT22;10304;51.074;13.754;2023-08-01T00:29:41;22.70;99.90
20291;DHT22;10304;51.074;13.754;2023-08-01T00:32:08;22.70;99.90
20291;DHT22;10304;51.074;13.754;2023-08-01T00:34:35;22.70;99.90
20291;DHT22;10304;51.074;13.754;2023-08-01T00:37:02;22.70;99.90
20291;DHT22;10304;51.074;13.754;2023-08-01T00:39:28;22.60;99.90
20291;DHT22;10304;51.074;13.754;2023-08-01T00:41:55;22.60;99.90
20291;DHT22;10304;51.074;13.754;2023-08-01T00:44:22;22.60;99.90
20291;DHT22;10304;51.074;13.754;2023-08-01T00:46:49;22.60;99.90
20291;DHT22;10304;51.074;13.754;2023-08-01T00:49:16;22.50;99.90
20291;DHT22;10304;51.074;13.754;2023-08-01T00:51:43;22.60;99.90
20291;DHT22;10304;51.074;13.754;2023-08-01T00:54:10;22.60;99.90
20291;DHT22;10304;51.074;13.754;2023-08-01T00:56:37;22.60;99.90
20291;DHT22;10304;51.074;13.754;2023-08-01T00:59:05;22.50;99.90
20291;DHT22;10304;51.074;13.754;2023-08-01T01:01:32;22.50;99.90
20291;DHT22;10304;51.074;13.754;2023-08-01T01:03:59;22.50;99.90
20291;DHT22;10304;51.074;13.754;2023-08-01T01:06:34;22.50;99.90
20291;DHT22;10304;51.074;13.754;2023-08-01T01:09:01;22.50;99.90
20291;DHT22;10304;51.074;13.754;2023-08-01T01:11:31;22.50;99.90
20291;DHT22;10304;51.074;13.754;2023-08-01T01:13:58;22.50;99.90
20291;DHT22;10304;51.074;13.754;2023-08-01T01:16:24;22.50;99.90
20291;DHT22;10304;51.074;13.754;2023-08-01T01:18:51;22.50;99.90
20291;DHT22;10304;51.074;13.754;2023-08-01T01:21:18;22.50;99.90
20291;DHT22;10304;51.074;13.754;2023-08-01T01:23:45;22.50;99.90
20291;DHT22;10304;51.074;13.754;2023-08-01T01:26:13;22.50;99.90
20291;DHT22;10304;51.074;13.754;2023-08-01T01:28:40;22.50;99.90
20291;DHT22;10304;51.074;13.754;2023-08-01T01:31:09;22.50;99.90
20291;DHT22;10304;51.074;13.754;2023-08-01T01:33:36;22.50;99.90
20291;DHT22;10304;51.074;13.754;2023-08-01T01:36:02;22.60;99.90
20291;DHT22;10304;51.074;13.754;2023-08-01T01:38:29;22.50;99.90
20291;DHT22;10304;51.074;13.754;2023-08-01T01:40:56;22.60;99.90
20291;DHT22;10304;51.074;13.754;2023-08-01T01:43:22;22.60;99.90
20291;DHT22;10304;51.074;13.754;2023-08-01T01:45:49;22.50;99.90
20291;DHT22;10304;51.074;13.754;2023-08-01T01:48:16;22.60;99.90
20291;DHT22;10304;51.074;13.754;2023-08-01T01:50:43;22.60;91.60
20291;DHT22;10304;51.074;13.754;2023-08-01T01:53:09;22.60;84.00
20291;DHT22;10304;51.074;13.754;2023-08-01T01:55:36;22.60;74.40
20291;DHT22;10304;51.074;13.754;2023-08-01T01:58:03;22.60;91.10
20291;DHT22;10304;51.074;13.754;2023-08-01T02:00:30;22.50;96.20
20291;DHT22;10304;51.074;13.754;2023-08-01T02:02:56;22.50;99.90
20291;DHT22;10304;51.074;13.754;2023-08-01T02:05:23;22.40;99.90
20291;DHT22;10304;51.074;13.754;2023-08-01T02:07:50;22.40;99.90
20291;DHT22;10304;51.074;13.754;2023-08-01T02:10:17;22.20;99.90
20291;DHT22;10304;51.074;13.754;2023-08-01T02:12:43;22.10;99.90
20291;DHT22;10304;51.074;13.754;2023-08-01T02:15:10;21.90;1.00
20291;DHT22;10304;51.074;13.754;2023-08-01T02:17:37;21.60;1.00
20291;DHT22;10304;51.074;13.754;2023-08-01T02:20:04;21.40;99.90
20291;DHT22;10304;51.074;13.754;2023-08-01T02:22:32;21.20;1.00
20291;DHT22;10304;51.074;13.754;2023-08-01T02:24:59;21.00;99.90
20291;DHT22;10304;51.074;13.754;2023-08-01T02:27:25;20.80;1.00
20291;DHT22;10304;51.074;13.754;2023-08-01T02:29:52;20.70;99.90
20291;DHT22;10304;51.074;13.754;2023-08-01T02:32:19;20.50;1.00
20291;DHT22;10304;51.074;13.754;2023-08-01T02:34:46;20.40;1.00
20291;DHT22;10304;51.074;13.754;2023-08-01T02:37:12;20.40;99.90
20291;DHT22;10304;51.074;13.754;2023-08-01T02:39:39;20.30;1.00
20291;DHT22;10304;51.074;13.754;2023-08-01T02:42:06;20.30;1.00
20291;DHT22;10304;51.074;13.754;2023-08-01T02:44:33;20.30;1.00
20291;DHT22;10304;51.074;13.754;2023-08-01T02:46:59;20.30;1.00
20291;DHT22;10304;51.074;13.754;2023-08-01T02:49:26;20.30;1.00
20291;DHT22;10304;51.074;13.754;2023-08-01T02:51:53;20.30;1.00
20291;DHT22;10304;51.074;13.754;2023-08-01T02:54:20;20.30;1.00
20291;DHT22;10304;51.074;13.754;2023-08-01T02:56:46;20.40;1.00
20291;DHT22;10304;51.074;13.754;2023-08-01T02:59:13;20.40;99.90
20291;DHT22;10304;51.074;13.754;2023-08-01T03:01:40;20.40;99.90
20291;DHT22;10304;51.074;13.754;2023-08-01T03:04:07;20.50;99.90
20291;DHT22;10304;51.074;13.754;2023-08-01T03:06:34;20.50;99.90
20291;DHT22;10304;51.074;13.754;2023-08-01T03:09:01;20.50;99.90
20291;DHT22;10304;51.074;13.754;2023-08-01T03:11:27;20.50;99.90
20291;DHT22;10304;51.074;13.754;2023-08-01T03:13:55;20.50;99.90
20291;DHT22;10304;51.074;13.754;2023-08-01T03:16:21;20.60;99.90
20291;DHT22;10304;51.074;13.754;2023-08-01T03:18:48;20.60;1.00
20291;DHT22;10304;51.074;13.754;2023-08-01T03:21:15;20.50;1.00
20291;DHT22;10304;51.074;13.754;2023-08-01T03:23:42;20.60;1.00
20291;DHT22;10304;51.074;13.754;2023-08-01T03:26:09;20.60;1.00
20291;DHT22;10304;51.074;13.754;2023-08-01T03:28:36;20.60;1.00
20291;DHT22;10304;51.074;13.754;2023-08-01T03:31:03;20.60;1.00
20291;DHT22;10304;51.074;13.754;2023-08-01T03:33:30;20.60;87.80
20291;DHT22;10304;51.074;13.754;2023-08-01T03:35:56;20.60;99.90
20291;DHT22;10304;51.074;13.754;2023-08-01T03:38:23;20.70;1.00
20291;DHT22;10304;51.074;13.754;2023-08-01T03:40:50;20.70;1.00
20291;DHT22;10304;51.074;13.754;2023-08-01T03:43:17;20.70;1.00
20291;DHT22;10304;51.074;13.754;2023-08-01T03:45:44;20.70;1.00
20291;DHT22;10304;51.074;13.754;2023-08-01T03:48:11;20.70;1.00
20291;DHT22;10304;51.074;13.754;2023-08-01T03:50:38;20.70;1.00
20291;DHT22;10304;51.074;13.754;2023-08-01T03:53:05;20.60;1.00
20291;DHT22;10304;51.074;13.754;2023-08-01T03:55:31;20.60;1.00
20291;DHT22;10304;51.074;13.754;2023-08-01T03:57:58;20.60;99.90
20291;DHT22;10304;51.074;13.754;2023-08-01T04:00:25;20.70;4.40
20291;DHT22;10304;51.074;13.754;2023-08-01T04:02:52;20.70;99.90
20291;DHT22;10304;51.074;13.754;2023-08-01T04:05:19;20.70;1.00
20291;DHT22;10304;51.074;13.754;2023-08-01T04:07:46;20.70;99.90
20291;DHT22;10304;51.074;13.754;2023-08-01T04:10:12;20.70;99.90
20291;DHT22;10304;51.074;13.754;2023-08-01T04:12:39;20.70;1.00
20291;DHT22;10304;51.074;13.754;2023-08-01T04:15:06;20.70;1.00
20291;DHT22;10304;51.074;13.754;2023-08-01T04:17:33;20.80;99.90
20291;DHT22;10304;51.074;13.754;2023-08-01T04:20:00;20.80;99.90
20291;DHT22;10304;51.074;13.754;2023-08-01T04:22:27;20.80;99.90
20291;DHT22;10304;51.074;13.754;2023-08-01T04:24:53;20.80;99.90
20291;DHT22;10304;51.074;13.754;2023-08-01T04:27:20;20.80;1.00
20291;DHT22;10304;51.074;13.754;2023-08-01T04:29:48;20.80;41.70
20291;DHT22;10304;51.074;13.754;2023-08-01T04:32:15;20.80;1.00
20291;DHT22;10304;51.074;13.754;2023-08-01T04:34:42;20.90;1.00
20291;DHT22;10304;51.074;13.754;2023-08-01T04:37:08;20.90;1.00
20291;DHT22;10304;51.074;13.754;2023-08-01T04:39:37;20.90;1.00
20291;DHT22;10304;51.074;13.754;2023-08-01T04:42:04;20.90;1.00
20291;DHT22;10304;51.074;13.754;2023-08-01T04:44:31;20.90;1.00
20291;DHT22;10304;51.074;13.754;2023-08-01T04:46:58;21.00;99.90
20291;DHT22;10304;51.074;13.754;2023-08-01T04:49:25;21.00;99.90
20291;DHT22;10304;51.074;13.754;2023-08-01T04:51:51;21.10;99.90
20291;DHT22;10304;51.074;13.754;2023-08-01T04:54:18;21.10;99.90
20291;DHT22;10304;51.074;13.754;2023-08-01T04:56:45;21.10;99.90
20291;DHT22;10304;51.074;13.754;2023-08-01T04:59:12;21.20;99.90
20291;DHT22;10304;51.074;13.754;2023-08-01T05:01:38;21.20;99.90
20291;DHT22;10304;51.074;13.754;2023-08-01T05:04:05;21.30;1.00
20291;DHT22;10304;51.074;13.754;2023-08-01T05:06:32;21.30;98.80
20291;DHT22;10304;51.074;13.754;2023-08-01T05:09:00;21.30;5.30
20291;DHT22;10304;51.074;13.754;2023-08-01T05:11:26;21.30;41.80
20291;DHT22;10304;51.074;13.754;2023-08-01T05:13:53;21.30;99.90
20291;DHT22;10304;51.074;13.754;2023-08-01T05:16:20;21.30;79.30
20291;DHT22;10304;51.074;13.754;2023-08-01T05:18:46;21.40;99.90
20291;DHT22;10304;51.074;13.754;2023-08-01T05:21:13;21.30;1.00
20291;DHT22;10304;51.074;13.754;2023-08-01T05:23:40;21.30;1.00
20291;DHT22;10304;51.074;13.754;2023-08-01T05:26:07;21.30;99.90
20291;DHT22;10304;51.074;13.754;2023-08-01T05:28:33;21.30;1.00
20291;DHT22;10304;51.074;13.754;2023-08-01T05:31:00;21.40;1.00
20291;DHT22;10304;51.074;13.754;2023-08-01T05:33:27;21.30;1.00
20291;DHT22;10304;51.074;13.754;2023-08-01T05:35:54;21.30;1.00
20291;DHT22;10304;51.074;13.754;2023-08-01T05:38:20;21.30;1.00
20291;DHT22;10304;51.074;13.754;2023-08-01T05:40:47;21.30;1.00
20291;DHT22;10304;51.074;13.754;2023-08-01T05:43:14;21.30;1.00
20291;DHT22;10304;51.074;13.754;2023-08-01T05:45:41;21.30;1.00
20291;DHT22;10304;51.074;13.754;2023-08-01T05:48:08;21.30;86.40
20291;DHT22;10304;51.074;13.754;2023-08-01T05:50:34;21.30;99.90
20291;DHT22;10304;51.074;13.754;2023-08-01T05:53:01;21.30;99.90
20291;DHT22;10304;51.074;13.754;2023-08-01T05:55:28;21.30;1.00
20291;DHT22;10304;51.074;13.754;2023-08-01T05:57:55;21.30;1.00
20291;DHT22;10304;51.074;13.754;2023-08-01T06:00:21;21.30;1.00
20291;DHT22;10304;51.074;13.754;2023-08-01T06:02:48;21.30;99.90
20291;DHT22;10304;51.074;13.754;2023-08-01T06:05:15;21.30;1.00
20291;DHT22;10304;51.074;13.754;2023-08-01T06:07:42;21.40;1.00
20291;DHT22;10304;51.074;13.754;2023-08-01T06:10:09;21.40;1.00
20291;DHT22;10304;51.074;13.754;2023-08-01T06:12:36;21.50;99.90
20291;DHT22;10304;51.074;13.754;2023-08-01T06:15:04;21.50;1.00
20291;DHT22;10304;51.074;13.754;2023-08-01T06:17:30;21.50;99.90
20291;DHT22;10304;51.074;13.754;2023-08-01T06:19:57;21.50;1.00
20291;DHT22;10304;51.074;13.754;2023-08-01T06:22:24;21.60;58.80
20291;DHT22;10304;51.074;13.754;2023-08-01T06:24:51;21.60;1.00
20291;DHT22;10304;51.074;13.754;2023-08-01T06:27:17;21.70;1.00
20291;DHT22;10304;51.074;13.754;2023-08-01T06:29:44;21.70;1.00
20291;DHT22;10304;51.074;13.754;2023-08-01T06:32:11;21.70;99.90
20291;DHT22;10304;51.074;13.754;2023-08-01T06:34:38;21.70;1.00
20291;DHT22;10304;51.074;13.754;2023-08-01T06:37:05;21.70;1.00
20291;DHT22;10304;51.074;13.754;2023-08-01T06:39:32;21.60;1.00
20291;DHT22;10304;51.074;13.754;2023-08-01T06:41:58;21.70;1.00
20291;DHT22;10304;51.074;13.754;2023-08-01T06:44:26;21.70;1.00
20291;DHT22;10304;51.074;13.754;2023-08-01T06:46:52;21.70;99.90
20291;DHT22;10304;51.074;13.754;2023-08-01T06:49:19;21.70;99.90
20291;DHT22;10304;51.074;13.754;2023-08-01T06:51:46;21.50;1.00
20291;DHT22;10304;51.074;13.754;2023-08-01T06:54:13;21.20;99.90
20291;DHT22;10304;51.074;13.754;2023-08-01T06:56:39;21.00;1.00
20291;DHT22;10304;51.074;13.754;2023-08-01T06:59:06;20.80;99.90
20291;DHT22;10304;51.074;13.754;2023-08-01T07:01:33;20.60;1.00
20291;DHT22;10304;51.074;13.754;2023-08-01T07:04:01;20.50;1.00
20291;DHT22;10304;51.074;13.754;2023-08-01T07:06:28;20.40;1.00
20291;DHT22;10304;51.074;13.754;2023-08-01T07:08:55;20.30;99.90
20291;DHT22;10304;51.074;13.754;2023-08-01T07:11:24;20.30;99.90
20291;DHT22;10304;51.074;13.754;2023-08-01T07:13:50;20.30;1.00
20291;DHT22;10304;51.074;13.754;2023-08-01T07:16:17;20.30;1.00
20291;DHT22;10304;51.074;13.754;2023-08-01T07:18:44;20.30;1.00
20291;DHT22;10304;51.074;13.754;2023-08-01T07:21:11;20.40;1.00
20291;DHT22;10304;51.074;13.754;2023-08-01T07:23:37;20.40;99.90
20291;DHT22;10304;51.074;13.754;2023-08-01T07:26:04;20.40;99.90
20291;DHT22;10304;51.074;13.754;2023-08-01T07:28:31;20.50;99.90
20291;DHT22;10304;51.074;13.754;2023-08-01T07:31:06;20.50;99.90
20291;DHT22;10304;51.074;13.754;2023-08-01T07:33:34;20.60;99.90
20291;DHT22;10304;51.074;13.754;2023-08-01T07:36:01;20.60;99.90
20291;DHT22;10304;51.074;13.754;2023-08-01T07:38:28;20.70;1.00
20291;DHT22;10304;51.074;13.754;2023-08-01T07:40:55;20.80;1.00
20291;DHT22;10304;51.074;13.754;2023-08-01T07:43:22;20.80;99.90
20291;DHT22;10304;51.074;13.754;2023-08-01T07:45:54;20.90;99.90
20291;DHT22;10304;51.074;13.754;2023-08-01T07:48:21;20.90;1.00
20291;DHT22;10304;51.074;13.754;2023-08-01T07:50:48;21.00;99.90
20291;DHT22;10304;51.074;13.754;2023-08-01T07:53:15;21.00;99.90
20291;DHT22;10304;51.074;13.754;2023-08-01T07:55:41;21.00;99.90
20291;DHT22;10304;51.074;13.754;2023-08-01T07:58:08;21.10;1.00
20291;DHT22;10304;51.074;13.754;2023-08-01T08:00:35;21.10;99.90
20291;DHT22;10304;51.074;13.754;2023-08-01T08:03:02;21.20;99.90
20291;DHT22;10304;51.074;13.754;2023-08-01T08:05:29;21.30;99.90
20291;DHT22;10304;51.074;13.754;2023-08-01T08:07:56;21.40;1.00
20291;DHT22;10304;51.074;13.754;2023-08-01T08:10:23;21.60;1.00
20291;DHT22;10304;51.074;13.754;2023-08-01T08:12:50;21.70;1.00
20291;DHT22;10304;51.074;13.754;2023-08-01T08:15:17;21.80;99.90
20291;DHT22;10304;51.074;13.754;2023-08-01T08:17:44;22.00;99.90
20291;DHT22;10304;51.074;13.754;2023-08-01T08:20:10;22.10;99.90
20291;DHT22;10304;51.074;13.754;2023-08-01T08:22:37;22.20;1.00
20291;DHT22;10304;51.074;13.754;2023-08-01T08:25:04;22.30;1.00
20291;DHT22;10304;51.074;13.754;2023-08-01T08:27:31;22.40;99.90
20291;DHT22;10304;51.074;13.754;2023-08-01T08:29:58;22.50;1.00
20291;DHT22;10304;51.074;13.754;2023-08-01T08:32:25;22.50;1.00
20291;DHT22;10304;51.074;13.754;2023-08-01T08:34:52;22.60;1.00
20291;DHT22;10304;51.074;13.754;2023-08-01T08:37:18;22.80;1.00
20291;DHT22;10304;51.074;13.754;2023-08-01T08:39:46;22.90;1.00
20291;DHT22;10304;51.074;13.754;2023-08-01T08:42:13;22.90;6.40
20291;DHT22;10304;51.074;13.754;2023-08-01T08:44:43;23.00;99.90
20291;DHT22;10304;51.074;13.754;2023-08-01T08:47:11;23.10;99.90
20291;DHT22;10304;51.074;13.754;2023-08-01T08:49:40;23.10;91.20
20291;DHT22;10304;51.074;13.754;2023-08-01T08:52:09;23.20;1.00
20291;DHT22;10304;51.074;13.754;2023-08-01T08:54:36;23.30;1.00
20291;DHT22;10304;51.074;13.754;2023-08-01T08:57:07;23.30;1.00
20291;DHT22;10304;51.074;13.754;2023-08-01T08:59:34;23.30;1.00
20291;DHT22;10304;51.074;13.754;2023-08-01T09:02:02;23.20;1.00
20291;DHT22;10304;51.074;13.754;2023-08-01T09:04:31;23.10;1.00
20291;DHT22;10304;51.074;13.754;2023-08-01T09:07:02;23.10;1.00
20291;DHT22;10304;51.074;13.754;2023-08-01T09:09:33;23.10;1.00
20291;DHT22;10304;51.074;13.754;2023-08-01T09:12:00;23.10;1.00
20291;DHT22;10304;51.074;13.754;2023-08-01T09:14:27;23.10;1.00
20291;DHT22;10304;51.074;13.754;2023-08-01T09:16:54;23.10;1.00
20291;DHT22;10304;51.074;13.754;2023-08-01T09:19:23;23.10;1.00
20291;DHT22;10304;51.074;13.754;2023-08-01T09:21:51;23.10;99.90
20291;DHT22;10304;51.074;13.754;2023-08-01T09:24:19;23.10;99.90
20291;DHT22;10304;51.074;13.754;2023-08-01T09:26:48;23.10;99.90
20291;DHT22;10304;51.074;13.754;2023-08-01T09:29:20;23.10;99.90
20291;DHT22;10304;51.074;13.754;2023-08-01T09:31:46;23.10;99.90
20291;DHT22;10304;51.074;13.754;2023-08-01T09:34:22;23.00;99.90
20291;DHT22;10304;51.074;13.754;2023-08-01T09:36:49;22.90;99.90
20291;DHT22;10304;51.074;13.754;2023-08-01T09:39:18;22.70;99.90
20291;DHT22;10304;51.074;13.754;2023-08-01T09:41:59;22.60;99.90
20291;DHT22;10304;51.074;13.754;2023-08-01T09:44:27;22.60;99.90
20291;DHT22;10304;51.074;13.754;2023-08-01T09:46:59;22.60;99.90
20291;DHT22;10304;51.074;13.754;2023-08-01T09:49:27;22.70;99.90
20291;DHT22;10304;51.074;13.754;2023-08-01T09:51:55;22.70;99.90
20291;DHT22;10304;51.074;13.754;2023-08-01T09:54:22;22.80;99.90
20291;DHT22;10304;51.074;13.754;2023-08-01T09:56:50;22.80;23.20
20291;DHT22;10304;51.074;13.754;2023-08-01T09:59:25;22.90;18.90
20291;DHT22;10304;51.074;13.754;2023-08-01T10:01:54;23.00;1.00
20291;DHT22;10304;51.074;13.754;2023-08-01T10:04:27;23.00;1.00
20291;DHT22;10304;51.074;13.754;2023-08-01T10:06:59;23.10;1.00
20291;DHT22;10304;51.074;13.754;2023-08-01T10:09:27;23.20;1.00
20291;DHT22;10304;51.074;13.754;2023-08-01T10:11:57;23.30;1.00
20291;DHT22;10304;51.074;13.754;2023-08-01T10:14:25;23.30;1.00
20291;DHT22;10304;51.074;13.754;2023-08-01T10:16:53;23.30;1.00
20291;DHT22;10304;51.074;13.754;2023-08-01T10:19:21;23.40;1.00
20291;DHT22;10304;51.074;13.754;2023-08-01T10:21:48;23.40;1.00
20291;DHT22;10304;51.074;13.754;2023-08-01T10:24:16;23.50;1.00
20291;DHT22;10304;51.074;13.754;2023-08-01T10:26:47;23.60;1.00
20291;DHT22;10304;51.074;13.754;2023-08-01T10:29:13;23.60;1.00
20291;DHT22;10304;51.074;13.754;2023-08-01T10:31:54;23.70;1.00
20291;DHT22;10304;51.074;13.754;2023-08-01T10:34:21;23.80;99.90
20291;DHT22;10304;51.074;13.754;2023-08-01T10:36:57;23.80;99.90
20291;DHT22;10304;51.074;13.754;2023-08-01T10:39:27;23.80;99.90
20291;DHT22;10304;51.074;13.754;2023-08-01T10:42:01;23.90;99.90
20291;DHT22;10304;51.074;13.754;2023-08-01T10:44:28;24.00;99.90
20291;DHT22;10304;51.074;13.754;2023-08-01T10:47:04;24.00;99.90
20291;DHT22;10304;51.074;13.754;2023-08-01T10:49:37;24.10;99.90
20291;DHT22;10304;51.074;13.754;2023-08-01T10:52:25;24.30;99.90
20291;DHT22;10304;51.074;13.754;2023-08-01T10:55:02;24.40;99.90
20291;DHT22;10304;51.074;13.754;2023-08-01T10:57:35;24.50;99.90
20291;DHT22;10304;51.074;13.754;2023-08-01T11:00:03;24.60;99.90
20291;DHT22;10304;51.074;13.754;2023-08-01T11:02:34;24.80;99.90
20291;DHT22;10304;51.074;13.754;2023-08-01T11:05:06;25.00;99.90
20291;DHT22;10304;51.074;13.754;2023-08-01T11:07:34;25.10;83.20
20291;DHT22;10304;51.074;13.754;2023-08-01T11:10:10;25.30;85.70
20291;DHT22;10304;51.074;13.754;2023-08-01T11:12:39;25.30;25.60
20291;DHT22;10304;51.074;13.754;2023-08-01T11:15:08;25.40;1.00
20291;DHT22;10304;51.074;13.754;2023-08-01T11:17:36;25.40;1.00
20291;DHT22;10304;51.074;13.754;2023-08-01T11:20:08;25.50;1.00
20291;DHT22;10304;51.074;13.754;2023-08-01T11:22:36;25.60;1.00
20291;DHT22;10304;51.074;13.754;2023-08-01T11:25:04;25.60;1.00
20291;DHT22;10304;51.074;13.754;2023-08-01T11:27:31;25.60;1.00
20291;DHT22;10304;51.074;13.754;2023-08-01T11:30:00;25.70;1.00
20291;DHT22;10304;51.074;13.754;2023-08-01T11:32:38;25.70;1.00
20291;DHT22;10304;51.074;13.754;2023-08-01T11:35:06;25.90;1.00
20291;DHT22;10304;51.074;13.754;2023-08-01T11:37:33;25.90;1.00
20291;DHT22;10304;51.074;13.754;2023-08-01T11:40:05;25.90;1.00
20291;DHT22;10304;51.074;13.754;2023-08-01T11:42:35;25.90;1.00
20291;DHT22;10304;51.074;13.754;2023-08-01T11:45:12;25.90;1.00
20291;DHT22;10304;51.074;13.754;2023-08-01T11:47:45;25.90;1.00
20291;DHT22;10304;51.074;13.754;2023-08-01T11:50:14;25.90;1.00
20291;DHT22;10304;51.074;13.754;2023-08-01T11:52:46;25.90;1.00
20291;DHT22;10304;51.074;13.754;2023-08-01T11:55:27;26.00;1.00
20291;DHT22;10304;51.074;13.754;2023-08-01T11:57:55;26.00;1.00
20291;DHT22;10304;51.074;13.754;2023-08-01T12:00:24;25.90;1.00
20291;DHT22;10304;51.074;13.754;2023-08-01T12:02:51;25.80;1.00
20291;DHT22;10304;51.074;13.754;2023-08-01T12:05:22;25.70;1.00
20291;DHT22;10304;51.074;13.754;2023-08-01T12:07:49;25.60;1.00
20291;DHT22;10304;51.074;13.754;2023-08-01T12:10:17;25.50;1.00
20291;DHT22;10304;51.074;13.754;2023-08-01T12:12:45;25.40;1.00
20291;DHT22;10304;51.074;13.754;2023-08-01T12:15:14;25.30;1.00
20291;DHT22;10304;51.074;13.754;2023-08-01T12:17:41;25.20;1.00
20291;DHT22;10304;51.074;13.754;2023-08-01T12:20:09;24.60;3.60
20291;DHT22;10304;51.074;13.754;2023-08-01T12:22:35;23.90;99.90
20291;DHT22;10304;51.074;13.754;2023-08-01T12:25:02;23.20;1.00
20291;DHT22;10304;51.074;13.754;2023-08-01T12:27:29;22.50;64.30
20291;DHT22;10304;51.074;13.754;2023-08-01T12:29:56;22.10;1.00
20291;DHT22;10304;51.074;13.754;2023-08-01T12:32:23;21.60;1.00
20291;DHT22;10304;51.074;13.754;2023-08-01T12:34:50;21.30;99.90
20291;DHT22;10304;51.074;13.754;2023-08-01T12:37:16;21.00;99.90
20291;DHT22;10304;51.074;13.754;2023-08-01T12:39:43;20.80;1.00
20291;DHT22;10304;51.074;13.754;2023-08-01T12:42:11;20.60;1.00
20291;DHT22;10304;51.074;13.754;2023-08-01T12:44:38;20.40;1.00
20291;DHT22;10304;51.074;13.754;2023-08-01T12:47:05;20.20;1.00
20291;DHT22;10304;51.074;13.754;2023-08-01T12:49:34;20.10;99.90
20291;DHT22;10304;51.074;13.754;2023-08-01T12:52:02;20.00;99.90
20291;DHT22;10304;51.074;13.754;2023-08-01T12:54:29;19.90;1.00
20291;DHT22;10304;51.074;13.754;2023-08-01T12:56:56;20.00;99.90
20291;DHT22;10304;51.074;13.754;2023-08-01T12:59:23;20.00;1.00
20291;DHT22;10304;51.074;13.754;2023-08-01T13:01:49;19.90;1.00
20291;DHT22;10304;51.074;13.754;2023-08-01T13:04:16;20.00;1.00
20291;DHT22;10304;51.074;13.754;2023-08-01T13:06:44;20.00;1.00
20291;DHT22;10304;51.074;13.754;2023-08-01T13:09:11;20.00;1.00
20291;DHT22;10304;51.074;13.754;2023-08-01T13:11:42;20.10;1.00
20291;DHT22;10304;51.074;13.754;2023-08-01T13:14:10;20.30;1.00
20291;DHT22;10304;51.074;13.754;2023-08-01T13:16:36;20.40;1.00
20291;DHT22;10304;51.074;13.754;2023-08-01T13:19:03;20.70;1.00
20291;DHT22;10304;51.074;13.754;2023-08-01T13:21:30;20.90;1.00
20291;DHT22;10304;51.074;13.754;2023-08-01T13:23:57;21.10;1.00
20291;DHT22;10304;51.074;13.754;2023-08-01T13:26:23;21.10;99.90
20291;DHT22;10304;51.074;13.754;2023-08-01T13:28:50;21.30;89.50
20291;DHT22;10304;51.074;13.754;2023-08-01T13:31:17;21.50;99.90
20291;DHT22;10304;51.074;13.754;2023-08-01T13:36:12;22.20;1.00
20291;DHT22;10304;51.074;13.754;2023-08-01T13:38:39;22.50;1.00
20291;DHT22;10304;51.074;13.754;2023-08-01T13:41:06;22.80;1.00
20291;DHT22;10304;51.074;13.754;2023-08-01T13:43:33;23.20;1.00
20291;DHT22;10304;51.074;13.754;2023-08-01T13:45:59;23.50;99.90
20291;DHT22;10304;51.074;13.754;2023-08-01T13:48:29;23.70;1.00
20291;DHT22;10304;51.074;13.754;2023-08-01T13:50:57;23.80;1.00
20291;DHT22;10304;51.074;13.754;2023-08-01T13:53:25;24.00;1.00
20291;DHT22;10304;51.074;13.754;2023-08-01T13:55:51;24.20;1.00
20291;DHT22;10304;51.074;13.754;2023-08-01T13:58:18;24.50;99.90
20291;DHT22;10304;51.074;13.754;2023-08-01T14:00:45;24.70;1.00
20291;DHT22;10304;51.074;13.754;2023-08-01T14:03:12;24.90;1.00
20291;DHT22;10304;51.074;13.754;2023-08-01T14:05:39;25.10;1.00
20291;DHT22;10304;51.074;13.754;2023-08-01T14:08:06;25.20;1.00
20291;DHT22;10304;51.074;13.754;2023-08-01T14:10:32;25.30;1.00
20291;DHT22;10304;51.074;13.754;2023-08-01T14:12:59;25.20;99.90
20291;DHT22;10304;51.074;13.754;2023-08-01T14:15:26;25.20;99.90
20291;DHT22;10304;51.074;13.754;2023-08-01T14:17:53;25.20;99.90
20291;DHT22;10304;51.074;13.754;2023-08-01T14:20:19;25.20;99.90
20291;DHT22;10304;51.074;13.754;2023-08-01T14:22:46;25.20;99.90
20291;DHT22;10304;51.074;13.754;2023-08-01T14:25:13;25.20;99.90
20291;DHT22;10304;51.074;13.754;2023-08-01T14:27:40;25.10;99.90
20291;DHT22;10304;51.074;13.754;2023-08-01T14:30:07;25.10;99.90
20291;DHT22;10304;51.074;13.754;2023-08-01T14:32:36;25.10;99.90
20291;DHT22;10304;51.074;13.754;2023-08-01T14:35:04;25.30;99.90
20291;DHT22;10304;51.074;13.754;2023-08-01T14:37:31;25.40;99.90
20291;DHT22;10304;51.074;13.754;2023-08-01T14:40:00;25.60;99.90
20291;DHT22;10304;51.074;13.754;2023-08-01T14:42:27;25.80;99.90
20291;DHT22;10304;51.074;13.754;2023-08-01T14:44:54;26.00;99.90
20291;DHT22;10304;51.074;13.754;2023-08-01T14:47:21;26.30;99.90
20291;DHT22;10304;51.074;13.754;2023-08-01T14:49:48;26.50;99.90
20291;DHT22;10304;51.074;13.754;2023-08-01T14:52:15;26.70;99.90
20291;DHT22;10304;51.074;13.754;2023-08-01T14:54:42;26.80;75.50
20291;DHT22;10304;51.074;13.754;2023-08-01T14:57:09;26.70;49.00
20291;DHT22;10304;51.074;13.754;2023-08-01T14:59:36;26.80;1.00
20291;DHT22;10304;51.074;13.754;2023-08-01T15:02:03;26.80;19.10
20291;DHT22;10304;51.074;13.754;2023-08-01T15:04:29;26.90;8.40
20291;DHT22;10304;51.074;13.754;2023-08-01T15:06:56;27.00;4.90
20291;DHT22;10304;51.074;13.754;2023-08-01T15:09:23;27.00;1.00
20291;DHT22;10304;51.074;13.754;2023-08-01T15:11:50;26.90;1.00
20291;DHT22;10304;51.074;13.754;2023-08-01T15:14:17;26.90;1.00
20291;DHT22;10304;51.074;13.754;2023-08-01T15:16:44;26.70;1.00
20291;DHT22;10304;51.074;13.754;2023-08-01T15:19:11;26.50;1.00
20291;DHT22;10304;51.074;13.754;2023-08-01T15:21:38;26.40;1.00
20291;DHT22;10304;51.074;13.754;2023-08-01T15:24:05;26.20;1.00
20291;DHT22;10304;51.074;13.754;2023-08-01T15:26:32;26.10;1.00